sensor_id;sensor_type;location;lat;lon;timestamp;temperature;humidity
54006;DHT22;39919;38.160;-122.260;2022-11-04T00:00:26;16.70;45.70
54006;DHT22;39919;38.160;-122.260;2022-11-04T00:02:57;16.60;44.90
54006;DHT22;39919;38.160;-122.260;2022-11-04T00:05:28;16.60;45.50
54006;DHT22;39919;38.160;-122.260;2022-11-04T00:07:58;16.60;45.60
54006;DHT22;39919;38.160;-122.260;2022-11-04T00:10:42;16.50;45.30
54006;DHT22;39919;38.160;-122.260;2022-11-04T00:13:30;16.50;44.70
54006;DHT22;39919;38.160;-122.260;2022-11-04T00:16:00;16.40;45.90
54006;DHT22;39919;38.160;-122.260;2022-11-04T00:18:44;16.30;46.50
54006;DHT22;39919;38.160;-122.260;2022-11-04T00:21:13;16.30;46.80
54006;DHT22;39919;38.160;-122.260;2022-11-04T00:24:00;16.20;47.30
54006;DHT22;39919;38.160;-122.260;2022-11-04T00:26:44;16.20;47.70
54006;DHT22;39919;38.160;-122.260;2022-11-04T00:29:29;16.10;47.80
54006;DHT22;39919;38.160;-122.260;2022-11-04T00:31:59;16.10;48.60
54006;DHT22;39919;38.160;-122.260;2022-11-04T00:34:44;16.00;49.10
54006;DHT22;39919;38.160;-122.260;2022-11-04T00:37:12;16.00;49.10
54006;DHT22;39919;38.160;-122.260;2022-11-04T00:39:42;15.90;49.40
54006;DHT22;39919;38.160;-122.260;2022-11-04T00:42:11;15.80;49.70
54006;DHT22;39919;38.160;-122.260;2022-11-04T00:44:39;15.80;49.90
54006;DHT22;39919;38.160;-122.260;2022-11-04T00:47:09;15.70;50.20
54006;DHT22;39919;38.160;-122.260;2022-11-04T00:49:37;15.60;50.10
54006;DHT22;39919;38.160;-122.260;2022-11-04T00:52:05;15.50;50.10
54006;DHT22;39919;38.160;-122.260;2022-11-04T00:54:35;15.50;50.90
54006;DHT22;39919;38.160;-122.260;2022-11-04T00:57:08;15.40;51.10
54006;DHT22;39919;38.160;-122.260;2022-11-04T00:59:36;15.30;50.90
54006;DHT22;39919;38.160;-122.260;2022-11-04T01:02:04;15.20;50.40
54006;DHT22;39919;38.160;-122.260;2022-11-04T01:04:33;15.20;51.10
54006;DHT22;39919;38.160;-122.260;2022-11-04T01:07:01;15.10;51.10
54006;DHT22;39919;38.160;-122.260;2022-11-04T01:09:29;15.00;51.70
54006;DHT22;39919;38.160;-122.260;2022-11-04T01:11:58;15.00;52.80
54006;DHT22;39919;38.160;-122.260;2022-11-04T01:14:28;14.90;53.50
54006;DHT22;39919;38.160;-122.260;2022-11-04T01:16:56;14.80;54.40
54006;DHT22;39919;38.160;-122.260;2022-11-04T01:19:25;14.80;54.10
54006;DHT22;39919;38.160;-122.260;2022-11-04T01:21:53;14.60;54.10
54006;DHT22;39919;38.160;-122.260;2022-11-04T01:24:21;14.60;54.50
54006;DHT22;39919;38.160;-122.260;2022-11-04T01:26:52;14.50;54.60
54006;DHT22;39919;38.160;-122.260;2022-11-04T01:29:21;14.40;54.50
54006;DHT22;39919;38.160;-122.260;2022-11-04T01:31:54;14.40;55.10
54006;DHT22;39919;38.160;-122.260;2022-11-04T01:34:22;14.30;55.10
54006;DHT22;39919;38.160;-122.260;2022-11-04T01:36:51;14.30;54.90
54006;DHT22;39919;38.160;-122.260;2022-11-04T01:39:20;14.20;55.20
54006;DHT22;39919;38.160;-122.260;2022-11-04T01:41:48;14.20;55.70
54006;DHT22;39919;38.160;-122.260;2022-11-04T01:47:06;14.00;55.70
54006;DHT22;39919;38.160;-122.260;2022-11-04T01:49:38;13.90;56.10
54006;DHT22;39919;38.160;-122.260;2022-11-04T01:52:07;13.90;55.90
54006;DHT22;39919;38.160;-122.260;2022-11-04T01:54:36;13.80;56.10
54006;DHT22;39919;38.160;-122.260;2022-11-04T01:57:13;13.70;55.80
54006;DHT22;39919;38.160;-122.260;2022-11-04T01:59:47;13.60;56.20
54006;DHT22;39919;38.160;-122.260;2022-11-04T02:02:19;13.60;56.50
54006;DHT22;39919;38.160;-122.260;2022-11-04T02:04:47;13.50;55.90
54006;DHT22;39919;38.160;-122.260;2022-11-04T02:07:15;13.40;55.70
54006;DHT22;39919;38.160;-122.260;2022-11-04T02:09:46;13.30;55.90
54006;DHT22;39919;38.160;-122.260;2022-11-04T02:12:21;13.30;56.50
54006;DHT22;39919;38.160;-122.260;2022-11-04T02:15:09;13.30;56.60
54006;DHT22;39919;38.160;-122.260;2022-11-04T02:20:36;13.20;57.60
54006;DHT22;39919;38.160;-122.260;2022-11-04T02:28:48;13.00;57.70
54006;DHT22;39919;38.160;-122.260;2022-11-04T02:31:22;12.90;57.60
54006;DHT22;39919;38.160;-122.260;2022-11-04T02:33:55;12.80;57.40
54006;DHT22;39919;38.160;-122.260;2022-11-04T02:36:32;12.80;58.90
54006;DHT22;39919;38.160;-122.260;2022-11-04T02:39:04;12.70;58.70
54006;DHT22;39919;38.160;-122.260;2022-11-04T02:41:37;12.60;58.10
54006;DHT22;39919;38.160;-122.260;2022-11-04T02:44:11;12.60;60.10
54006;DHT22;39919;38.160;-122.260;2022-11-04T02:46:43;12.50;60.70
54006;DHT22;39919;38.160;-122.260;2022-11-04T02:49:17;12.40;59.90
54006;DHT22;39919;38.160;-122.260;2022-11-04T02:51:47;12.40;61.10
54006;DHT22;39919;38.160;-122.260;2022-11-04T02:54:19;12.30;60.90
54006;DHT22;39919;38.160;-122.260;2022-11-04T02:56:49;12.20;60.50
54006;DHT22;39919;38.160;-122.260;2022-11-04T02:59:19;12.10;60.30
54006;DHT22;39919;38.160;-122.260;2022-11-04T03:01:52;12.10;61.10
54006;DHT22;39919;38.160;-122.260;2022-11-04T03:04:22;12.00;61.00
54006;DHT22;39919;38.160;-122.260;2022-11-04T03:06:51;11.90;60.50
54006;DHT22;39919;38.160;-122.260;2022-11-04T03:09:21;11.90;60.70
54006;DHT22;39919;38.160;-122.260;2022-11-04T03:11:51;11.80;60.50
54006;DHT22;39919;38.160;-122.260;2022-11-04T03:14:21;11.80;61.50
54006;DHT22;39919;38.160;-122.260;2022-11-04T03:16:53;11.70;61.90
54006;DHT22;39919;38.160;-122.260;2022-11-04T03:19:25;11.70;61.60
54006;DHT22;39919;38.160;-122.260;2022-11-04T03:21:56;11.60;61.00
54006;DHT22;39919;38.160;-122.260;2022-11-04T03:24:26;11.50;61.10
54006;DHT22;39919;38.160;-122.260;2022-11-04T03:26:56;11.50;62.00
54006;DHT22;39919;38.160;-122.260;2022-11-04T03:29:27;11.50;61.70
54006;DHT22;39919;38.160;-122.260;2022-11-04T03:32:01;11.40;62.50
54006;DHT22;39919;38.160;-122.260;2022-11-04T03:34:32;11.40;62.70
54006;DHT22;39919;38.160;-122.260;2022-11-04T03:37:00;11.30;63.50
54006;DHT22;39919;38.160;-122.260;2022-11-04T03:39:28;11.30;63.50
54006;DHT22;39919;38.160;-122.260;2022-11-04T03:41:58;11.20;63.20
54006;DHT22;39919;38.160;-122.260;2022-11-04T03:44:26;11.20;63.70
54006;DHT22;39919;38.160;-122.260;2022-11-04T03:46:56;11.10;63.50
54006;DHT22;39919;38.160;-122.260;2022-11-04T03:49:27;11.00;63.60
54006;DHT22;39919;38.160;-122.260;2022-11-04T03:51:56;11.00;63.20
54006;DHT22;39919;38.160;-122.260;2022-11-04T03:54:24;10.90;63.20
54006;DHT22;39919;38.160;-122.260;2022-11-04T03:57:05;10.90;63.70
54006;DHT22;39919;38.160;-122.260;2022-11-04T03:59:47;10.80;63.60
54006;DHT22;39919;38.160;-122.260;2022-11-04T04:02:24;10.80;63.60
54006;DHT22;39919;38.160;-122.260;2022-11-04T04:04:57;10.70;63.40
54006;DHT22;39919;38.160;-122.260;2022-11-04T04:07:28;10.70;63.40
54006;DHT22;39919;38.160;-122.260;2022-11-04T04:09:59;10.60;63.60
54006;DHT22;39919;38.160;-122.260;2022-11-04T04:12:29;10.60;64.30
54006;DHT22;39919;38.160;-122.260;2022-11-04T04:15:03;10.60;64.00
54006;DHT22;39919;38.160;-122.260;2022-11-04T04:17:33;10.50;63.80
54006;DHT22;39919;38.160;-122.260;2022-11-04T04:20:05;10.40;64.70
54006;DHT22;39919;38.160;-122.260;2022-11-04T04:22:35;10.40;64.30
54006;DHT22;39919;38.160;-122.260;2022-11-04T04:25:07;10.40;64.50
54006;DHT22;39919;38.160;-122.260;2022-11-04T04:27:53;10.30;64.80
54006;DHT22;39919;38.160;-122.260;2022-11-04T04:30:23;10.30;64.90
54006;DHT22;39919;38.160;-122.260;2022-11-04T04:32:52;10.20;66.10
54006;DHT22;39919;38.160;-122.260;2022-11-04T04:35:25;10.20;66.50
54006;DHT22;39919;38.160;-122.260;2022-11-04T04:38:13;10.20;67.10
54006;DHT22;39919;38.160;-122.260;2022-11-04T04:41:01;10.10;66.50
54006;DHT22;39919;38.160;-122.260;2022-11-04T04:43:46;10.10;66.30
54006;DHT22;39919;38.160;-122.260;2022-11-04T04:46:27;10.00;66.60
54006;DHT22;39919;38.160;-122.260;2022-11-04T04:49:02;9.90;66.80
54006;DHT22;39919;38.160;-122.260;2022-11-04T04:51:32;9.90;67.20
54006;DHT22;39919;38.160;-122.260;2022-11-04T04:54:01;9.90;67.10
54006;DHT22;39919;38.160;-122.260;2022-11-04T04:56:30;9.80;67.20
54006;DHT22;39919;38.160;-122.260;2022-11-04T04:58:58;9.80;67.90
54006;DHT22;39919;38.160;-122.260;2022-11-04T05:01:26;9.70;68.00
54006;DHT22;39919;38.160;-122.260;2022-11-04T05:03:57;9.70;68.30
54006;DHT22;39919;38.160;-122.260;2022-11-04T05:06:25;9.70;68.10
54006;DHT22;39919;38.160;-122.260;2022-11-04T05:08:55;9.60;67.70
54006;DHT22;39919;38.160;-122.260;2022-11-04T05:11:23;9.60;67.60
54006;DHT22;39919;38.160;-122.260;2022-11-04T05:13:51;9.60;67.80
54006;DHT22;39919;38.160;-122.260;2022-11-04T05:16:20;9.50;67.30
54006;DHT22;39919;38.160;-122.260;2022-11-04T05:18:50;9.50;68.00
54006;DHT22;39919;38.160;-122.260;2022-11-04T05:21:18;9.50;68.40
54006;DHT22;39919;38.160;-122.260;2022-11-04T05:23:46;9.40;69.10
54006;DHT22;39919;38.160;-122.260;2022-11-04T05:26:16;9.40;69.40
54006;DHT22;39919;38.160;-122.260;2022-11-04T05:28:44;9.40;69.10
54006;DHT22;39919;38.160;-122.260;2022-11-04T05:31:12;9.30;68.70
54006;DHT22;39919;38.160;-122.260;2022-11-04T05:33:40;9.30;68.90
54006;DHT22;39919;38.160;-122.260;2022-11-04T05:36:09;9.30;69.10
54006;DHT22;39919;38.160;-122.260;2022-11-04T05:38:38;9.30;69.50
54006;DHT22;39919;38.160;-122.260;2022-11-04T05:41:06;9.20;69.80
54006;DHT22;39919;38.160;-122.260;2022-11-04T05:43:36;9.20;69.30
54006;DHT22;39919;38.160;-122.260;2022-11-04T05:46:05;9.10;69.60
54006;DHT22;39919;38.160;-122.260;2022-11-04T05:48:33;9.10;69.30
54006;DHT22;39919;38.160;-122.260;2022-11-04T05:51:01;9.10;68.80
54006;DHT22;39919;38.160;-122.260;2022-11-04T05:53:30;9.10;68.70
54006;DHT22;39919;38.160;-122.260;2022-11-04T05:55:59;9.00;70.50
54006;DHT22;39919;38.160;-122.260;2022-11-04T05:58:27;9.00;70.90
54006;DHT22;39919;38.160;-122.260;2022-11-04T06:03:40;8.90;70.20
54006;DHT22;39919;38.160;-122.260;2022-11-04T06:06:08;8.90;70.50
54006;DHT22;39919;38.160;-122.260;2022-11-04T06:08:37;8.80;70.80
54006;DHT22;39919;38.160;-122.260;2022-11-04T06:11:05;8.80;71.40
54006;DHT22;39919;38.160;-122.260;2022-11-04T06:13:33;8.80;72.30
54006;DHT22;39919;38.160;-122.260;2022-11-04T06:16:01;8.80;72.60
54006;DHT22;39919;38.160;-122.260;2022-11-04T06:18:30;8.70;72.00
54006;DHT22;39919;38.160;-122.260;2022-11-04T06:21:17;8.70;72.30
54006;DHT22;39919;38.160;-122.260;2022-11-04T06:23:47;8.70;72.10
54006;DHT22;39919;38.160;-122.260;2022-11-04T06:26:15;8.70;72.50
54006;DHT22;39919;38.160;-122.260;2022-11-04T06:28:44;8.60;71.90
54006;DHT22;39919;38.160;-122.260;2022-11-04T06:31:13;8.60;71.10
54006;DHT22;39919;38.160;-122.260;2022-11-04T06:33:41;8.60;70.70
54006;DHT22;39919;38.160;-122.260;2022-11-04T06:36:12;8.50;71.40
54006;DHT22;39919;38.160;-122.260;2022-11-04T06:38:41;8.50;72.80
54006;DHT22;39919;38.160;-122.260;2022-11-04T06:41:10;8.50;73.20
54006;DHT22;39919;38.160;-122.260;2022-11-04T06:43:38;8.40;72.60
54006;DHT22;39919;38.160;-122.260;2022-11-04T06:46:20;8.40;72.50
54006;DHT22;39919;38.160;-122.260;2022-11-04T06:48:50;8.30;72.50
54006;DHT22;39919;38.160;-122.260;2022-11-04T06:51:20;8.30;73.00
54006;DHT22;39919;38.160;-122.260;2022-11-04T06:53:48;8.30;72.70
54006;DHT22;39919;38.160;-122.260;2022-11-04T06:56:16;8.30;72.00
54006;DHT22;39919;38.160;-122.260;2022-11-04T06:58:46;8.20;72.20
54006;DHT22;39919;38.160;-122.260;2022-11-04T07:01:17;8.20;72.40
54006;DHT22;39919;38.160;-122.260;2022-11-04T07:03:47;8.20;72.10
54006;DHT22;39919;38.160;-122.260;2022-11-04T07:06:16;8.10;72.10
54006;DHT22;39919;38.160;-122.260;2022-11-04T07:08:49;8.20;73.20
54006;DHT22;39919;38.160;-122.260;2022-11-04T07:11:18;8.10;74.40
54006;DHT22;39919;38.160;-122.260;2022-11-04T07:13:48;8.10;74.00
54006;DHT22;39919;38.160;-122.260;2022-11-04T07:16:17;8.10;74.00
54006;DHT22;39919;38.160;-122.260;2022-11-04T07:18:45;8.00;73.60
54006;DHT22;39919;38.160;-122.260;2022-11-04T07:21:14;8.00;73.10
54006;DHT22;39919;38.160;-122.260;2022-11-04T07:23:42;8.00;72.80
54006;DHT22;39919;38.160;-122.260;2022-11-04T07:26:12;7.90;72.90
54006;DHT22;39919;38.160;-122.260;2022-11-04T07:28:40;7.90;72.50
54006;DHT22;39919;38.160;-122.260;2022-11-04T07:31:09;7.90;72.40
54006;DHT22;39919;38.160;-122.260;2022-11-04T07:33:38;7.90;73.20
54006;DHT22;39919;38.160;-122.260;2022-11-04T07:36:07;7.80;73.00
54006;DHT22;39919;38.160;-122.260;2022-11-04T07:38:35;7.80;72.60
54006;DHT22;39919;38.160;-122.260;2022-11-04T07:41:03;7.80;73.50
54006;DHT22;39919;38.160;-122.260;2022-11-04T07:43:33;7.70;74.60
54006;DHT22;39919;38.160;-122.260;2022-11-04T07:46:02;7.80;75.30
54006;DHT22;39919;38.160;-122.260;2022-11-04T07:48:31;7.70;74.80
54006;DHT22;39919;38.160;-122.260;2022-11-04T07:50:59;7.70;74.00
54006;DHT22;39919;38.160;-122.260;2022-11-04T07:53:29;7.60;74.90
54006;DHT22;39919;38.160;-122.260;2022-11-04T07:55:57;7.60;75.20
54006;DHT22;39919;38.160;-122.260;2022-11-04T07:58:25;7.60;74.90
54006;DHT22;39919;38.160;-122.260;2022-11-04T08:00:59;7.60;75.20
54006;DHT22;39919;38.160;-122.260;2022-11-04T08:03:27;7.60;75.60
54006;DHT22;39919;38.160;-122.260;2022-11-04T08:05:56;7.50;75.80
54006;DHT22;39919;38.160;-122.260;2022-11-04T08:08:24;7.50;75.60
54006;DHT22;39919;38.160;-122.260;2022-11-04T08:10:53;7.50;76.50
54006;DHT22;39919;38.160;-122.260;2022-11-04T08:13:22;7.50;76.70
54006;DHT22;39919;38.160;-122.260;2022-11-04T08:15:50;7.50;76.00
54006;DHT22;39919;38.160;-122.260;2022-11-04T08:18:20;7.40;75.50
54006;DHT22;39919;38.160;-122.260;2022-11-04T08:20:48;7.40;76.20
54006;DHT22;39919;38.160;-122.260;2022-11-04T08:23:16;7.40;76.60
54006;DHT22;39919;38.160;-122.260;2022-11-04T08:25:45;7.40;76.40
54006;DHT22;39919;38.160;-122.260;2022-11-04T08:28:13;7.40;76.30
54006;DHT22;39919;38.160;-122.260;2022-11-04T08:30:51;7.40;75.70
54006;DHT22;39919;38.160;-122.260;2022-11-04T08:33:21;7.40;76.20
54006;DHT22;39919;38.160;-122.260;2022-11-04T08:35:50;7.40;76.60
54006;DHT22;39919;38.160;-122.260;2022-11-04T08:38:18;7.30;76.40
54006;DHT22;39919;38.160;-122.260;2022-11-04T08:40:46;7.30;76.00
54006;DHT22;39919;38.160;-122.260;2022-11-04T08:43:15;7.30;75.80
54006;DHT22;39919;38.160;-122.260;2022-11-04T08:45:44;7.30;77.40
54006;DHT22;39919;38.160;-122.260;2022-11-04T08:48:12;7.30;76.60
54006;DHT22;39919;38.160;-122.260;2022-11-04T08:50:43;7.30;76.50
54006;DHT22;39919;38.160;-122.260;2022-11-04T08:53:15;7.20;76.80
54006;DHT22;39919;38.160;-122.260;2022-11-04T08:55:43;7.20;76.10
54006;DHT22;39919;38.160;-122.260;2022-11-04T08:58:11;7.20;76.20
54006;DHT22;39919;38.160;-122.260;2022-11-04T09:00:39;7.20;76.90
54006;DHT22;39919;38.160;-122.260;2022-11-04T09:03:07;7.10;76.90
54006;DHT22;39919;38.160;-122.260;2022-11-04T09:05:35;7.10;77.40
54006;DHT22;39919;38.160;-122.260;2022-11-04T09:08:11;7.10;77.70
54006;DHT22;39919;38.160;-122.260;2022-11-04T09:10:40;7.10;78.00
54006;DHT22;39919;38.160;-122.260;2022-11-04T09:13:09;7.10;78.70
54006;DHT22;39919;38.160;-122.260;2022-11-04T09:15:38;7.00;78.40
54006;DHT22;39919;38.160;-122.260;2022-11-04T09:18:06;7.00;78.10
54006;DHT22;39919;38.160;-122.260;2022-11-04T09:20:35;7.00;78.50
54006;DHT22;39919;38.160;-122.260;2022-11-04T09:23:04;7.00;78.50
54006;DHT22;39919;38.160;-122.260;2022-11-04T09:25:34;6.90;77.90
54006;DHT22;39919;38.160;-122.260;2022-11-04T09:28:02;6.90;78.10
54006;DHT22;39919;38.160;-122.260;2022-11-04T09:30:31;6.90;79.00
54006;DHT22;39919;38.160;-122.260;2022-11-04T09:32:59;6.90;79.80
54006;DHT22;39919;38.160;-122.260;2022-11-04T09:35:27;6.90;80.00
54006;DHT22;39919;38.160;-122.260;2022-11-04T09:37:57;6.90;79.70
54006;DHT22;39919;38.160;-122.260;2022-11-04T09:40:26;6.80;79.50
54006;DHT22;39919;38.160;-122.260;2022-11-04T09:42:59;6.80;80.00
54006;DHT22;39919;38.160;-122.260;2022-11-04T09:45:30;6.80;80.20
54006;DHT22;39919;38.160;-122.260;2022-11-04T09:47:59;6.80;80.50
54006;DHT22;39919;38.160;-122.260;2022-11-04T09:50:28;6.80;80.90
54006;DHT22;39919;38.160;-122.260;2022-11-04T09:52:59;6.80;81.00
54006;DHT22;39919;38.160;-122.260;2022-11-04T09:55:31;6.70;80.50
54006;DHT22;39919;38.160;-122.260;2022-11-04T09:58:01;6.70;80.30
54006;DHT22;39919;38.160;-122.260;2022-11-04T10:00:30;6.70;80.50
54006;DHT22;39919;38.160;-122.260;2022-11-04T10:03:03;6.70;80.70
54006;DHT22;39919;38.160;-122.260;2022-11-04T10:05:41;6.70;80.70
54006;DHT22;39919;38.160;-122.260;2022-11-04T10:10:58;6.70;81.80
54006;DHT22;39919;38.160;-122.260;2022-11-04T10:13:37;6.60;81.30
54006;DHT22;39919;38.160;-122.260;2022-11-04T10:16:23;6.60;81.70
54006;DHT22;39919;38.160;-122.260;2022-11-04T10:21:42;6.60;81.00
54006;DHT22;39919;38.160;-122.260;2022-11-04T10:24:16;6.60;80.30
54006;DHT22;39919;38.160;-122.260;2022-11-04T10:26:45;6.60;79.70
54006;DHT22;39919;38.160;-122.260;2022-11-04T10:29:19;6.60;79.80
54006;DHT22;39919;38.160;-122.260;2022-11-04T10:31:50;6.50;79.60
54006;DHT22;39919;38.160;-122.260;2022-11-04T10:34:22;6.50;79.20
54006;DHT22;39919;38.160;-122.260;2022-11-04T10:36:53;6.50;79.00
54006;DHT22;39919;38.160;-122.260;2022-11-04T10:39:24;6.50;79.90
54006;DHT22;39919;38.160;-122.260;2022-11-04T10:41:53;6.50;81.50
54006;DHT22;39919;38.160;-122.260;2022-11-04T10:44:25;6.50;81.80
54006;DHT22;39919;38.160;-122.260;2022-11-04T10:46:57;6.50;82.90
54006;DHT22;39919;38.160;-122.260;2022-11-04T10:49:33;6.50;83.20
54006;DHT22;39919;38.160;-122.260;2022-11-04T10:52:04;6.40;83.10
54006;DHT22;39919;38.160;-122.260;2022-11-04T10:54:33;6.40;83.20
54006;DHT22;39919;38.160;-122.260;2022-11-04T10:57:03;6.40;83.20
54006;DHT22;39919;38.160;-122.260;2022-11-04T10:59:45;6.40;82.70
54006;DHT22;39919;38.160;-122.260;2022-11-04T11:02:13;6.40;83.10
54006;DHT22;39919;38.160;-122.260;2022-11-04T11:04:41;6.50;83.30
54006;DHT22;39919;38.160;-122.260;2022-11-04T11:07:12;6.50;83.60
54006;DHT22;39919;38.160;-122.260;2022-11-04T11:09:51;6.60;83.80
54006;DHT22;39919;38.160;-122.260;2022-11-04T11:12:22;6.60;84.00
54006;DHT22;39919;38.160;-122.260;2022-11-04T11:14:57;6.60;83.60
54006;DHT22;39919;38.160;-122.260;2022-11-04T11:17:34;6.70;83.80
54006;DHT22;39919;38.160;-122.260;2022-11-04T11:20:05;6.70;83.40
54006;DHT22;39919;38.160;-122.260;2022-11-04T11:22:45;6.70;82.70
54006;DHT22;39919;38.160;-122.260;2022-11-04T11:25:20;6.70;81.90
54006;DHT22;39919;38.160;-122.260;2022-11-04T11:27:49;6.70;82.20
54006;DHT22;39919;38.160;-122.260;2022-11-04T11:30:21;6.80;82.50
54006;DHT22;39919;38.160;-122.260;2022-11-04T11:32:53;6.70;82.00
54006;DHT22;39919;38.160;-122.260;2022-11-04T11:35:22;6.70;81.70
54006;DHT22;39919;38.160;-122.260;2022-11-04T11:37:52;6.80;82.20
54006;DHT22;39919;38.160;-122.260;2022-11-04T11:40:24;6.70;81.60
54006;DHT22;39919;38.160;-122.260;2022-11-04T11:42:52;6.70;82.20
54006;DHT22;39919;38.160;-122.260;2022-11-04T11:45:23;6.70;81.40
54006;DHT22;39919;38.160;-122.260;2022-11-04T11:47:52;6.70;81.30
54006;DHT22;39919;38.160;-122.260;2022-11-04T11:50:22;6.70;82.00
54006;DHT22;39919;38.160;-122.260;2022-11-04T11:53:05;6.70;82.30
54006;DHT22;39919;38.160;-122.260;2022-11-04T11:55:35;6.70;82.00
54006;DHT22;39919;38.160;-122.260;2022-11-04T11:58:04;6.80;81.70
54006;DHT22;39919;38.160;-122.260;2022-11-04T12:00:39;6.80;81.40
54006;DHT22;39919;38.160;-122.260;2022-11-04T12:03:11;6.80;81.80
54006;DHT22;39919;38.160;-122.260;2022-11-04T12:05:43;6.80;82.30
54006;DHT22;39919;38.160;-122.260;2022-11-04T12:08:17;6.80;82.40
54006;DHT22;39919;38.160;-122.260;2022-11-04T12:10:51;6.80;82.90
54006;DHT22;39919;38.160;-122.260;2022-11-04T12:13:22;6.80;82.50
54006;DHT22;39919;38.160;-122.260;2022-11-04T12:16:01;6.80;82.50
54006;DHT22;39919;38.160;-122.260;2022-11-04T12:18:41;6.80;81.90
54006;DHT22;39919;38.160;-122.260;2022-11-04T12:21:16;6.80;81.60
54006;DHT22;39919;38.160;-122.260;2022-11-04T12:23:48;6.80;81.30
54006;DHT22;39919;38.160;-122.260;2022-11-04T12:26:21;6.80;81.40
54006;DHT22;39919;38.160;-122.260;2022-11-04T12:29:12;6.80;81.10
54006;DHT22;39919;38.160;-122.260;2022-11-04T12:31:46;6.80;82.30
54006;DHT22;39919;38.160;-122.260;2022-11-04T12:34:22;6.80;83.60
54006;DHT22;39919;38.160;-122.260;2022-11-04T12:36:59;6.70;84.20
54006;DHT22;39919;38.160;-122.260;2022-11-04T12:39:34;6.70;84.30
54006;DHT22;39919;38.160;-122.260;2022-11-04T12:42:13;6.70;84.20
54006;DHT22;39919;38.160;-122.260;2022-11-04T12:44:45;6.70;84.70
54006;DHT22;39919;38.160;-122.260;2022-11-04T12:47:21;6.70;84.20
54006;DHT22;39919;38.160;-122.260;2022-11-04T12:49:57;6.70;83.60
54006;DHT22;39919;38.160;-122.260;2022-11-04T12:52:36;6.70;83.30
54006;DHT22;39919;38.160;-122.260;2022-11-04T12:55:14;6.60;84.50
54006;DHT22;39919;38.160;-122.260;2022-11-04T12:57:47;6.60;84.00
54006;DHT22;39919;38.160;-122.260;2022-11-04T13:00:18;6.60;83.50
54006;DHT22;39919;38.160;-122.260;2022-11-04T13:02:53;6.60;83.10
54006;DHT22;39919;38.160;-122.260;2022-11-04T13:05:34;6.60;84.90
54006;DHT22;39919;38.160;-122.260;2022-11-04T13:08:05;6.60;84.80
54006;DHT22;39919;38.160;-122.260;2022-11-04T13:10:38;6.60;85.30
54006;DHT22;39919;38.160;-122.260;2022-11-04T13:13:07;6.60;84.70
54006;DHT22;39919;38.160;-122.260;2022-11-04T13:15:38;6.60;86.00
54006;DHT22;39919;38.160;-122.260;2022-11-04T13:18:10;6.60;86.40
54006;DHT22;39919;38.160;-122.260;2022-11-04T13:20:40;6.50;86.40
54006;DHT22;39919;38.160;-122.260;2022-11-04T13:23:12;6.50;85.80
54006;DHT22;39919;38.160;-122.260;2022-11-04T13:25:42;6.50;86.20
54006;DHT22;39919;38.160;-122.260;2022-11-04T13:28:13;6.50;86.20
54006;DHT22;39919;38.160;-122.260;2022-11-04T13:30:44;6.50;86.20
54006;DHT22;39919;38.160;-122.260;2022-11-04T13:33:17;6.50;85.60
54006;DHT22;39919;38.160;-122.260;2022-11-04T13:35:50;6.50;85.10
54006;DHT22;39919;38.160;-122.260;2022-11-04T13:38:27;6.40;84.70
54006;DHT22;39919;38.160;-122.260;2022-11-04T13:40:59;6.40;85.40
54006;DHT22;39919;38.160;-122.260;2022-11-04T13:43:30;6.40;85.20
54006;DHT22;39919;38.160;-122.260;2022-11-04T13:46:19;6.50;86.90
54006;DHT22;39919;38.160;-122.260;2022-11-04T13:48:56;6.40;86.60
54006;DHT22;39919;38.160;-122.260;2022-11-04T13:51:33;6.50;87.50
54006;DHT22;39919;38.160;-122.260;2022-11-04T13:54:01;6.50;87.30
54006;DHT22;39919;38.160;-122.260;2022-11-04T13:56:31;6.50;86.60
54006;DHT22;39919;38.160;-122.260;2022-11-04T13:59:02;6.50;86.00
54006;DHT22;39919;38.160;-122.260;2022-11-04T14:01:30;6.50;85.80
54006;DHT22;39919;38.160;-122.260;2022-11-04T14:04:16;6.50;85.30
54006;DHT22;39919;38.160;-122.260;2022-11-04T14:06:50;6.50;86.10
54006;DHT22;39919;38.160;-122.260;2022-11-04T14:09:23;6.50;85.90
54006;DHT22;39919;38.160;-122.260;2022-11-04T14:14:42;6.50;86.50
54006;DHT22;39919;38.160;-122.260;2022-11-04T14:17:55;6.60;86.90
54006;DHT22;39919;38.160;-122.260;2022-11-04T14:20:22;6.50;86.40
54006;DHT22;39919;38.160;-122.260;2022-11-04T14:22:51;6.50;85.60
54006;DHT22;39919;38.160;-122.260;2022-11-04T14:25:24;6.50;85.20
54006;DHT22;39919;38.160;-122.260;2022-11-04T14:27:53;6.50;84.70
54006;DHT22;39919;38.160;-122.260;2022-11-04T14:30:28;6.50;84.90
54006;DHT22;39919;38.160;-122.260;2022-11-04T14:32:58;6.50;86.00
54006;DHT22;39919;38.160;-122.260;2022-11-04T14:35:30;6.50;86.40
54006;DHT22;39919;38.160;-122.260;2022-11-04T14:38:01;6.50;86.00
54006;DHT22;39919;38.160;-122.260;2022-11-04T14:40:44;6.50;85.40
54006;DHT22;39919;38.160;-122.260;2022-11-04T14:43:17;6.50;85.50
54006;DHT22;39919;38.160;-122.260;2022-11-04T14:45:46;6.50;84.90
54006;DHT22;39919;38.160;-122.260;2022-11-04T14:48:14;6.50;84.60
54006;DHT22;39919;38.160;-122.260;2022-11-04T14:50:49;6.50;85.10
54006;DHT22;39919;38.160;-122.260;2022-11-04T14:53:20;6.50;85.80
54006;DHT22;39919;38.160;-122.260;2022-11-04T14:56:01;6.50;86.30
54006;DHT22;39919;38.160;-122.260;2022-11-04T14:58:29;6.50;86.20
54006;DHT22;39919;38.160;-122.260;2022-11-04T15:00:57;6.60;86.10
54006;DHT22;39919;38.160;-122.260;2022-11-04T15:03:27;6.60;86.70
54006;DHT22;39919;38.160;-122.260;2022-11-04T15:05:59;6.60;87.20
54006;DHT22;39919;38.160;-122.260;2022-11-04T15:08:32;6.60;87.90
54006;DHT22;39919;38.160;-122.260;2022-11-04T15:11:03;6.70;87.80
54006;DHT22;39919;38.160;-122.260;2022-11-04T15:13:33;6.70;88.10
54006;DHT22;39919;38.160;-122.260;2022-11-04T15:16:00;6.80;88.00
54006;DHT22;39919;38.160;-122.260;2022-11-04T15:18:31;6.80;87.40
54006;DHT22;39919;38.160;-122.260;2022-11-04T15:21:02;6.90;87.20
54006;DHT22;39919;38.160;-122.260;2022-11-04T15:23:32;7.00;87.40
54006;DHT22;39919;38.160;-122.260;2022-11-04T15:26:00;7.00;87.10
54006;DHT22;39919;38.160;-122.260;2022-11-04T15:28:31;7.10;87.00
54006;DHT22;39919;38.160;-122.260;2022-11-04T15:31:03;7.20;86.80
54006;DHT22;39919;38.160;-122.260;2022-11-04T15:33:31;7.20;86.30
54006;DHT22;39919;38.160;-122.260;2022-11-04T15:38:52;7.40;87.10
54006;DHT22;39919;38.160;-122.260;2022-11-04T15:41:21;7.50;86.80
54006;DHT22;39919;38.160;-122.260;2022-11-04T15:44:12;7.60;86.50
54006;DHT22;39919;38.160;-122.260;2022-11-04T15:46:46;7.70;86.90
54006;DHT22;39919;38.160;-122.260;2022-11-04T15:49:19;7.80;86.90